Time;durP1;ratioP1;P1;durP2;ratioP2;P2;SDS_P1;SDS_P2;PMS_P1;PMS_P2;Temp;Humidity;BMP_temperature;BMP_pressure;BME280_temperature;BME280_humidity;BME280_pressure;Samples;Min_cycle;Max_cycle;Signal;HPM_P1;HPM_P2
2021/03/20 00:01:32;;;;;;;11.88;5.85;;;;;;;;;;5033392;28;20042;-64
2021/03/20 00:04:18;;;;;;;6.63;4.53;;;;;;;;;;5033108;28;20041;-63
2021/03/20 00:07:03;;;;;;;5.72;4.65;;;;;;;;;;5013570;28;20049;-63
2021/03/20 00:09:53;;;;;;;5.85;4.45;;;;;;;;;;5013578;28;20093;-64
2021/03/20 00:12:38;;;;;;;6.03;4.20;;;;;;;;;;5014178;28;20037;-63
2021/03/20 00:15:24;;;;;;;7.97;5.03;;;;;;;;;;4999733;28;20089;-64
2021/03/20 00:18:09;;;;;;;6.47;4.45;;;;;;;;;;5013650;28;20042;-64
2021/03/20 00:20:55;;;;;;;7.32;4.90;;;;;;;;;;5021338;28;20411;-64
2021/03/20 00:23:40;;;;;;;8.07;5.03;;;;;;;;;;5032874;28;20050;-64
2021/03/20 00:26:25;;;;;;;6.68;5.07;;;;;;;;;;5033240;28;20050;-63
2021/03/20 00:29:10;;;;;;;7.22;5.05;;;;;;;;;;5018917;28;20116;-64
2021/03/20 00:31:56;;;;;;;7.90;4.50;;;;;;;;;;5033815;28;20045;-63
2021/03/20 00:34:41;;;;;;;7.22;5.40;;;;;;;;;;5013679;28;20054;-64
2021/03/20 00:37:26;;;;;;;8.18;4.93;;;;;;;;;;5012579;28;20046;-64
2021/03/20 00:40:13;;;;;;;7.75;4.60;;;;;;;;;;5013302;28;20038;-64
2021/03/20 00:42:58;;;;;;;7.97;5.38;;;;;;;;;;5016600;28;20045;-64
2021/03/20 00:45:43;;;;;;;10.75;5.40;;;;;;;;;;5033002;28;20507;-64
2021/03/20 00:48:30;;;;;;;8.73;5.53;;;;;;;;;;5033100;28;20411;-63
2021/03/20 00:51:15;;;;;;;8.32;5.90;;;;;;;;;;5033010;28;20045;-64
2021/03/20 00:54:00;;;;;;;8.68;5.53;;;;;;;;;;5023862;28;20034;-64
2021/03/20 00:56:46;;;;;;;9.25;5.57;;;;;;;;;;5013102;28;20104;-64
2021/03/20 00:59:31;;;;;;;7.43;5.50;;;;;;;;;;5013225;28;20459;-64
2021/03/20 01:02:16;;;;;;;8.07;5.85;;;;;;;;;;5012896;28;20073;-64
2021/03/20 01:05:02;;;;;;;9.00;6.35;;;;;;;;;;5025737;28;20049;-63
2021/03/20 01:07:47;;;;;;;9.38;5.57;;;;;;;;;;5032334;28;20053;-64
2021/03/20 01:10:33;;;;;;;9.93;6.07;;;;;;;;;;5032195;28;20049;-63
2021/03/20 01:13:19;;;;;;;9.73;6.43;;;;;;;;;;5032349;28;20133;-64
2021/03/20 01:16:04;;;;;;;8.73;6.18;;;;;;;;;;5012072;28;20046;-64
2021/03/20 01:18:50;;;;;;;8.55;6.30;;;;;;;;;;5021541;28;20046;-64
2021/03/20 01:21:35;;;;;;;13.60;7.03;;;;;;;;;;5032271;28;20049;-64
2021/03/20 01:24:20;;;;;;;10.75;7.05;;;;;;;;;;5033036;28;20045;-63
2021/03/20 01:27:05;;;;;;;10.00;5.95;;;;;;;;;;5033545;28;20535;-64
2021/03/20 01:29:50;;;;;;;11.18;6.95;;;;;;;;;;5022293;28;20503;-63
2021/03/20 01:32:36;;;;;;;9.05;6.57;;;;;;;;;;5016046;28;20038;-64
2021/03/20 01:35:21;;;;;;;14.15;7.32;;;;;;;;;;5018663;28;20404;-63
2021/03/20 01:38:07;;;;;;;15.80;7.85;;;;;;;;;;5035835;28;20128;-63
2021/03/20 01:40:59;;;;;;;9.80;6.88;;;;;;;;;;5034799;28;20046;-64
2021/03/20 01:43:45;;;;;;;11.55;7.60;;;;;;;;;;5035533;28;20492;-64
2021/03/20 01:46:30;;;;;;;12.65;8.18;;;;;;;;;;5035197;28;20045;-63
2021/03/20 01:49:18;;;;;;;11.02;7.18;;;;;;;;;;5032475;28;20116;-63
2021/03/20 01:52:05;;;;;;;11.20;6.93;;;;;;;;;;5015653;28;20053;-64
2021/03/20 01:55:07;;;;;;;12.32;7.65;;;;;;;;;;5000776;28;20050;-63
2021/03/20 01:57:54;;;;;;;12.57;7.43;;;;;;;;;;5000730;28;20049;-63
2021/03/20 02:00:40;;;;;;;10.13;7.22;;;;;;;;;;5011610;28;20495;-64
2021/03/20 02:03:27;;;;;;;10.50;6.95;;;;;;;;;;5035156;28;20045;-63
2021/03/20 02:06:13;;;;;;;12.00;6.85;;;;;;;;;;5034949;28;20503;-63
2021/03/20 02:08:59;;;;;;;15.48;8.10;;;;;;;;;;5020093;28;20046;-64
2021/03/20 02:11:46;;;;;;;14.57;8.70;;;;;;;;;;5028787;28;20046;-63
2021/03/20 02:14:48;;;;;;;14.75;8.43;;;;;;;;;;5020039;28;20081;-64
2021/03/20 02:17:51;;;;;;;9.68;7.35;;;;;;;;;;5034915;28;20049;-63
2021/03/20 02:20:42;;;;;;;11.50;8.32;;;;;;;;;;5014771;28;20046;-63
2021/03/20 02:23:53;;;;;;;10.85;8.10;;;;;;;;;;5015009;28;20496;-63
2021/03/20 02:26:59;;;;;;;13.20;8.77;;;;;;;;;;5014800;28;20120;-64
2021/03/20 02:29:44;;;;;;;12.63;8.13;;;;;;;;;;5000095;28;20057;-63
2021/03/20 02:32:40;;;;;;;12.20;8.48;;;;;;;;;;5023872;28;20071;-63
2021/03/20 02:35:34;;;;;;;13.38;7.90;;;;;;;;;;5026100;28;20037;-64
2021/03/20 02:38:26;;;;;;;12.57;7.78;;;;;;;;;;5054176;28;20053;-64
2021/03/20 02:41:14;;;;;;;13.43;9.55;;;;;;;;;;5053893;28;20053;-63
2021/03/20 02:44:01;;;;;;;13.25;9.55;;;;;;;;;;5019792;28;20046;-64
2021/03/20 02:46:54;;;;;;;14.30;8.82;;;;;;;;;;5019739;28;20050;-63
2021/03/20 02:49:42;;;;;;;12.35;8.73;;;;;;;;;;5034582;28;20049;-63
2021/03/20 02:52:30;;;;;;;15.20;8.80;;;;;;;;;;5031072;28;20042;-62
2021/03/20 02:55:18;;;;;;;13.52;8.25;;;;;;;;;;5013908;28;20491;-62
2021/03/20 02:58:03;;;;;;;11.48;8.10;;;;;;;;;;4999599;28;20050;-62
2021/03/20 03:00:52;;;;;;;12.70;8.52;;;;;;;;;;5014049;28;20046;-62
2021/03/20 03:03:37;;;;;;;13.88;8.43;;;;;;;;;;5000500;28;20049;-62
2021/03/20 03:06:25;;;;;;;15.48;9.65;;;;;;;;;;4999210;28;20046;-62
2021/03/20 03:09:13;;;;;;;16.92;9.90;;;;;;;;;;4999285;28;20504;-64
2021/03/20 03:12:00;;;;;;;19.10;10.40;;;;;;;;;;4999476;28;20053;-62
2021/03/20 03:14:50;;;;;;;17.42;9.98;;;;;;;;;;5014898;28;20132;-62
2021/03/20 03:17:36;;;;;;;17.73;10.27;;;;;;;;;;4999086;28;20420;-62
2021/03/20 03:20:24;;;;;;;16.67;9.65;;;;;;;;;;5013827;28;20089;-62
2021/03/20 03:23:11;;;;;;;17.25;10.13;;;;;;;;;;4999352;28;20050;-62
2021/03/20 03:26:04;;;;;;;19.13;10.02;;;;;;;;;;5033254;28;20184;-63
2021/03/20 03:28:54;;;;;;;18.75;10.43;;;;;;;;;;5014219;28;20495;-62
2021/03/20 03:31:51;;;;;;;20.73;11.25;;;;;;;;;;5007191;28;20129;-63
2021/03/20 03:34:45;;;;;;;15.45;10.13;;;;;;;;;;5008215;28;20042;-62
2021/03/20 03:37:34;;;;;;;14.80;9.20;;;;;;;;;;4998858;28;20046;-62
2021/03/20 03:40:23;;;;;;;14.85;8.60;;;;;;;;;;5013410;28;20049;-62
2021/03/20 03:43:09;;;;;;;13.68;9.23;;;;;;;;;;4998803;28;20417;-62
2021/03/20 03:45:54;;;;;;;15.32;10.38;;;;;;;;;;5015467;28;20057;-62
2021/03/20 03:48:40;;;;;;;21.02;10.65;;;;;;;;;;5018280;28;20054;-63
2021/03/20 03:51:25;;;;;;;13.90;8.95;;;;;;;;;;5032404;28;20053;-63
2021/03/20 03:54:10;;;;;;;12.95;8.10;;;;;;;;;;5032464;28;20045;-63
2021/03/20 03:56:58;;;;;;;10.20;7.38;;;;;;;;;;5013229;28;20128;-63
2021/03/20 03:59:46;;;;;;;14.43;9.60;;;;;;;;;;4998774;28;20132;-63
2021/03/20 04:02:34;;;;;;;10.70;8.10;;;;;;;;;;5013270;28;20042;-63
2021/03/20 04:05:23;;;;;;;12.88;7.60;;;;;;;;;;5019490;28;20072;-63
2021/03/20 04:08:15;;;;;;;16.60;11.43;;;;;;;;;;5018201;28;20049;-63
2021/03/20 04:11:02;;;;;;;14.35;9.15;;;;;;;;;;5052223;23;20507;-63
2021/03/20 04:13:48;;;;;;;16.40;10.50;;;;;;;;;;5071414;28;20486;-64
2021/03/20 04:16:44;;;;;;;14.88;10.25;;;;;;;;;;5071526;28;20119;-63
2021/03/20 04:19:39;;;;;;;17.83;11.07;;;;;;;;;;5071514;28;20044;-63
2021/03/20 04:22:27;;;;;;;16.15;9.60;;;;;;;;;;5051389;28;20045;-63
2021/03/20 04:25:30;;;;;;;12.20;8.10;;;;;;;;;;5051774;28;20487;-63
2021/03/20 04:28:42;;;;;;;20.92;11.45;;;;;;;;;;5032373;28;20046;-64
2021/03/20 04:31:34;;;;;;;15.32;11.10;;;;;;;;;;5032351;28;20053;-63
2021/03/20 04:34:26;;;;;;;16.95;11.48;;;;;;;;;;5032870;28;20053;-62
2021/03/20 04:37:12;;;;;;;12.63;9.05;;;;;;;;;;5051381;28;20048;-63
2021/03/20 04:39:57;;;;;;;14.25;8.98;;;;;;;;;;5052082;28;20502;-64
2021/03/20 04:42:42;;;;;;;13.48;8.63;;;;;;;;;;5051060;28;20120;-63
2021/03/20 04:45:31;;;;;;;14.65;10.07;;;;;;;;;;5051849;28;20080;-63
2021/03/20 04:48:19;;;;;;;12.50;9.43;;;;;;;;;;5047157;28;20045;-63
2021/03/20 04:51:09;;;;;;;15.60;10.80;;;;;;;;;;5032267;28;20053;-63
2021/03/20 04:53:59;;;;;;;13.65;9.15;;;;;;;;;;5031036;28;20046;-63
2021/03/20 04:56:55;;;;;;;17.67;10.40;;;;;;;;;;5032047;28;20037;-63
2021/03/20 04:59:43;;;;;;;13.90;9.90;;;;;;;;;;5041065;28;20045;-64
2021/03/20 05:02:32;;;;;;;16.92;10.80;;;;;;;;;;5051802;28;20311;-63
2021/03/20 05:05:28;;;;;;;19.20;10.77;;;;;;;;;;5050665;28;20048;-63
2021/03/20 05:08:15;;;;;;;18.33;11.20;;;;;;;;;;5038360;28;20053;-63
2021/03/20 05:11:06;;;;;;;19.27;12.43;;;;;;;;;;5030770;28;20049;-63
2021/03/20 05:13:59;;;;;;;14.32;9.57;;;;;;;;;;5031758;28;20519;-63
2021/03/20 05:16:48;;;;;;;11.38;7.78;;;;;;;;;;5030607;28;20503;-63
2021/03/20 05:19:34;;;;;;;10.73;7.38;;;;;;;;;;5050647;28;20041;-63
2021/03/20 05:22:19;;;;;;;14.63;9.68;;;;;;;;;;5051723;28;20045;-63
2021/03/20 05:25:04;;;;;;;13.93;9.23;;;;;;;;;;5051430;28;20045;-63
2021/03/20 05:27:49;;;;;;;13.38;9.68;;;;;;;;;;5047028;28;20050;-64
2021/03/20 05:30:35;;;;;;;14.27;9.80;;;;;;;;;;5031867;28;20045;-64
2021/03/20 05:33:20;;;;;;;19.27;11.80;;;;;;;;;;5043171;28;20057;-63
2021/03/20 05:36:05;;;;;;;23.27;14.27;;;;;;;;;;5046676;28;20132;-63
2021/03/20 05:38:51;;;;;;;27.08;14.80;;;;;;;;;;5050048;28;20053;-63
2021/03/20 05:41:46;;;;;;;16.58;11.07;;;;;;;;;;5031793;28;20041;-63
2021/03/20 05:44:49;;;;;;;21.70;13.30;;;;;;;;;;5048463;28;20067;-63
2021/03/20 05:47:47;;;;;;;24.25;13.88;;;;;;;;;;5048524;28;20519;-63
2021/03/20 05:50:51;;;;;;;20.95;12.35;;;;;;;;;;5031382;28;20484;-63
2021/03/20 05:53:46;;;;;;;21.98;14.90;;;;;;;;;;5045690;28;20037;-63
2021/03/20 05:56:54;;;;;;;21.88;14.38;;;;;;;;;;5051194;28;20045;-63
2021/03/20 05:59:44;;;;;;;18.48;12.90;;;;;;;;;;5048186;28;20045;-63
2021/03/20 06:02:37;;;;;;;19.42;11.77;;;;;;;;;;5049388;28;20049;-63
2021/03/20 06:05:25;;;;;;;17.85;12.02;;;;;;;;;;5049962;28;20041;-64
2021/03/20 06:08:19;;;;;;;16.52;11.63;;;;;;;;;;5049844;28;20057;-63
2021/03/20 06:11:24;;;;;;;17.40;12.77;;;;;;;;;;5031175;28;20049;-63
2021/03/20 06:14:20;;;;;;;18.38;12.73;;;;;;;;;;5030844;28;20132;-63
2021/03/20 06:17:28;;;;;;;13.93;10.43;;;;;;;;;;5034839;28;20042;-63
2021/03/20 06:20:16;;;;;;;17.55;12.38;;;;;;;;;;5049987;28;20049;-63
2021/03/20 06:23:20;;;;;;;14.88;9.57;;;;;;;;;;5039718;28;20053;-63
2021/03/20 06:26:07;;;;;;;12.85;10.23;;;;;;;;;;5053505;28;20049;-63
2021/03/20 06:28:59;;;;;;;12.60;9.18;;;;;;;;;;5054133;28;20041;-63
2021/03/20 06:32:05;;;;;;;12.35;9.10;;;;;;;;;;5033577;28;20614;-63
2021/03/20 06:34:56;;;;;;;10.50;8.15;;;;;;;;;;5034379;28;20117;-63
2021/03/20 06:37:41;;;;;;;9.48;8.02;;;;;;;;;;5034668;28;20046;-62
2021/03/20 06:40:30;;;;;;;10.55;8.82;;;;;;;;;;5033302;28;20041;-64
2021/03/20 06:43:16;;;;;;;10.02;8.18;;;;;;;;;;5033321;28;20116;-64
2021/03/20 06:46:02;;;;;;;11.90;8.30;;;;;;;;;;5033990;28;20049;-64
2021/03/20 06:48:47;;;;;;;12.98;8.77;;;;;;;;;;5044463;28;20076;-64
2021/03/20 06:51:32;;;;;;;11.68;8.57;;;;;;;;;;5052977;28;20045;-64
2021/03/20 06:54:18;;;;;;;11.70;8.20;;;;;;;;;;5052831;28;20045;-64
2021/03/20 06:57:03;;;;;;;11.95;7.93;;;;;;;;;;5053974;28;20515;-64
2021/03/20 06:59:48;;;;;;;10.20;7.75;;;;;;;;;;5036970;28;20037;-64
2021/03/20 07:02:38;;;;;;;9.18;7.05;;;;;;;;;;5050751;28;20069;-64
2021/03/20 07:05:35;;;;;;;8.85;7.13;;;;;;;;;;5053475;28;20049;-65
2021/03/20 07:08:39;;;;;;;6.22;5.60;;;;;;;;;;5053957;28;20045;-65
2021/03/20 07:11:30;;;;;;;9.57;5.97;;;;;;;;;;5054240;28;20462;-65
2021/03/20 07:14:33;;;;;;;11.57;6.20;;;;;;;;;;5054098;28;20049;-65
2021/03/20 07:17:25;;;;;;;9.63;6.70;;;;;;;;;;5054847;28;20041;-64
2021/03/20 07:20:15;;;;;;;9.65;6.85;;;;;;;;;;5045574;28;20044;-65
2021/03/20 07:23:11;;;;;;;8.85;6.63;;;;;;;;;;5035455;28;20045;-65
2021/03/20 07:26:07;;;;;;;6.75;5.25;;;;;;;;;;5049247;28;20041;-65
2021/03/20 07:28:54;;;;;;;12.80;6.25;;;;;;;;;;5050576;28;20045;-66
2021/03/20 07:31:51;;;;;;;8.15;6.07;;;;;;;;;;5052116;28;20131;-64
2021/03/20 07:34:37;;;;;;;9.35;6.85;;;;;;;;;;5052058;28;20057;-65
2021/03/20 07:37:22;;;;;;;8.15;6.45;;;;;;;;;;5044585;28;20161;-64
2021/03/20 07:40:28;;;;;;;7.05;5.55;;;;;;;;;;5042119;28;20075;-65
2021/03/20 07:43:21;;;;;;;8.80;5.25;;;;;;;;;;5030187;28;20049;-64
2021/03/20 07:46:16;;;;;;;6.63;5.50;;;;;;;;;;5041742;28;20041;-65
2021/03/20 07:49:02;;;;;;;6.60;5.07;;;;;;;;;;5052956;28;20503;-65
2021/03/20 07:51:48;;;;;;;9.07;5.25;;;;;;;;;;5050999;28;20036;-65
2021/03/20 07:54:37;;;;;;;6.55;5.50;;;;;;;;;;5051727;28;20414;-65
2021/03/20 07:57:22;;;;;;;10.48;6.03;;;;;;;;;;5052956;28;20045;-65
2021/03/20 08:00:20;;;;;;;7.40;5.32;;;;;;;;;;5051962;28;20049;-65
2021/03/20 08:03:06;;;;;;;6.10;5.10;;;;;;;;;;5031609;28;20527;-64
2021/03/20 08:05:51;;;;;;;6.95;5.55;;;;;;;;;;5032727;28;20045;-65
2021/03/20 08:08:38;;;;;;;7.45;4.72;;;;;;;;;;5032841;28;20049;-65
2021/03/20 08:11:28;;;;;;;6.68;5.60;;;;;;;;;;5041874;28;20045;-65
2021/03/20 08:14:18;;;;;;;6.63;5.55;;;;;;;;;;5052501;28;20095;-65
2021/03/20 08:17:03;;;;;;;5.88;5.28;;;;;;;;;;5051456;28;20512;-65
2021/03/20 08:19:48;;;;;;;6.32;4.78;;;;;;;;;;5052627;28;20049;-65
2021/03/20 08:22:46;;;;;;;5.28;4.78;;;;;;;;;;5050375;28;20041;-66
2021/03/20 08:25:31;;;;;;;7.05;4.43;;;;;;;;;;5052197;28;20056;-65
2021/03/20 08:28:16;;;;;;;6.82;4.57;;;;;;;;;;5052425;28;20407;-65
2021/03/20 08:31:10;;;;;;;6.97;5.47;;;;;;;;;;5051573;28;20052;-65
2021/03/20 08:34:01;;;;;;;9.10;5.32;;;;;;;;;;5052257;28;20049;-63
2021/03/20 08:37:02;;;;;;;8.00;6.47;;;;;;;;;;5051928;28;20049;-65
2021/03/20 08:40:06;;;;;;;10.52;6.57;;;;;;;;;;5051165;28;20049;-64
2021/03/20 08:42:54;;;;;;;8.40;5.97;;;;;;;;;;5051510;28;20084;-65
2021/03/20 08:45:55;;;;;;;12.13;7.75;;;;;;;;;;5049854;28;20045;-64
2021/03/20 08:49:06;;;;;;;10.70;7.63;;;;;;;;;;5051889;28;20542;-64
2021/03/20 08:52:13;;;;;;;12.32;8.55;;;;;;;;;;5031007;28;20742;-65
2021/03/20 08:55:17;;;;;;;10.20;8.13;;;;;;;;;;5050749;28;20120;-65
2021/03/20 08:58:05;;;;;;;13.73;8.57;;;;;;;;;;5052236;28;20449;-66
2021/03/20 09:01:03;;;;;;;10.20;7.47;;;;;;;;;;5051068;28;20512;-66
2021/03/20 09:03:50;;;;;;;12.73;7.82;;;;;;;;;;5050900;28;20116;-65
2021/03/20 09:06:38;;;;;;;10.80;7.22;;;;;;;;;;5051745;28;20507;-65
2021/03/20 09:09:25;;;;;;;9.82;7.15;;;;;;;;;;5051712;28;20053;-65
2021/03/20 09:12:17;;;;;;;9.73;6.65;;;;;;;;;;5049623;28;20074;-65
2021/03/20 09:15:08;;;;;;;6.85;5.95;;;;;;;;;;5050619;28;20049;-65
2021/03/20 09:17:53;;;;;;;7.05;5.47;;;;;;;;;;5051646;28;20466;-65
2021/03/20 09:20:42;;;;;;;9.80;6.45;;;;;;;;;;5050646;28;20045;-65
2021/03/20 09:23:32;;;;;;;9.02;6.47;;;;;;;;;;5050773;28;20068;-65
2021/03/20 09:26:36;;;;;;;9.27;6.80;;;;;;;;;;5050392;28;20041;-65
2021/03/20 09:29:26;;;;;;;8.75;7.05;;;;;;;;;;5050973;28;20057;-64
2021/03/20 09:32:12;;;;;;;14.60;8.80;;;;;;;;;;5050821;28;20133;-65
2021/03/20 09:34:58;;;;;;;11.05;7.75;;;;;;;;;;5051499;28;20053;-65
2021/03/20 09:37:48;;;;;;;11.52;8.70;;;;;;;;;;5050553;28;20045;-64
2021/03/20 09:40:39;;;;;;;12.98;8.02;;;;;;;;;;5050748;28;20041;-65
2021/03/20 09:43:25;;;;;;;9.38;7.38;;;;;;;;;;5051700;28;20049;-65
2021/03/20 09:46:27;;;;;;;12.63;7.00;;;;;;;;;;5050276;28;20126;-65
2021/03/20 09:49:13;;;;;;;7.32;5.45;;;;;;;;;;5052126;28;20052;-65
2021/03/20 09:51:58;;;;;;;7.15;4.85;;;;;;;;;;5054706;28;20045;-65
2021/03/20 09:54:44;;;;;;;7.18;4.82;;;;;;;;;;5054978;28;20041;-65
2021/03/20 09:57:29;;;;;;;6.15;4.50;;;;;;;;;;5055054;28;20574;-65
2021/03/20 10:00:14;;;;;;;8.30;5.28;;;;;;;;;;5055178;28;20127;-64
2021/03/20 10:03:00;;;;;;;7.38;5.05;;;;;;;;;;5053363;28;20498;-65
2021/03/20 10:05:45;;;;;;;8.52;4.88;;;;;;;;;;5054807;28;20128;-65
2021/03/20 10:08:30;;;;;;;9.15;5.97;;;;;;;;;;5053975;28;20072;-65
2021/03/20 10:11:29;;;;;;;8.93;5.85;;;;;;;;;;5102588;22;20053;-64
2021/03/20 10:14:26;;;;;;;7.57;6.03;;;;;;;;;;5074568;28;20041;-64
2021/03/20 10:17:15;;;;;;;13.63;6.55;;;;;;;;;;5077038;28;20063;-64
2021/03/20 10:20:14;;;;;;;9.25;6.68;;;;;;;;;;5077103;28;20048;-64
2021/03/20 10:23:01;;;;;;;8.52;5.88;;;;;;;;;;5064260;28;20041;-64
2021/03/20 10:25:51;;;;;;;10.13;6.22;;;;;;;;;;5076400;28;20040;-64
2021/03/20 10:28:43;;;;;;;11.25;5.95;;;;;;;;;;5074651;28;20041;-64
2021/03/20 10:31:29;;;;;;;8.10;6.30;;;;;;;;;;5075542;28;20040;-65
2021/03/20 10:34:15;;;;;;;10.13;6.82;;;;;;;;;;5072439;28;20108;-64
2021/03/20 10:37:07;;;;;;;10.27;8.07;;;;;;;;;;5076021;28;20498;-64
2021/03/20 10:40:03;;;;;;;10.37;8.00;;;;;;;;;;5074404;28;20041;-64
2021/03/20 10:42:49;;;;;;;7.63;6.03;;;;;;;;;;5070259;28;20049;-63
2021/03/20 10:45:37;;;;;;;9.23;6.82;;;;;;;;;;5054515;28;20049;-65
2021/03/20 10:48:25;;;;;;;13.10;8.10;;;;;;;;;;5054958;28;20124;-65
2021/03/20 10:51:11;;;;;;;15.25;9.43;;;;;;;;;;5053693;28;20407;-64
2021/03/20 10:53:56;;;;;;;12.82;6.95;;;;;;;;;;5061481;28;20063;-65
2021/03/20 10:56:41;;;;;;;9.65;5.78;;;;;;;;;;5072059;28;20049;-65
2021/03/20 10:59:30;;;;;;;7.88;5.55;;;;;;;;;;5073421;28;20055;-65
2021/03/20 11:02:22;;;;;;;6.95;5.85;;;;;;;;;;5074375;28;20052;-65
2021/03/20 11:05:12;;;;;;;6.97;6.03;;;;;;;;;;5051048;28;20093;-64
2021/03/20 11:08:15;;;;;;;6.82;5.70;;;;;;;;;;5034993;28;20456;-64
2021/03/20 11:11:16;;;;;;;6.25;4.90;;;;;;;;;;5034188;28;20057;-64
2021/03/20 11:14:04;;;;;;;6.32;4.75;;;;;;;;;;5040658;28;20036;-64
2021/03/20 11:16:53;;;;;;;6.40;5.53;;;;;;;;;;5071973;28;20044;-63
2021/03/20 11:19:39;;;;;;;5.90;5.30;;;;;;;;;;5073451;28;20048;-65
2021/03/20 11:22:34;;;;;;;7.25;4.93;;;;;;;;;;5073410;28;20491;-64
2021/03/20 11:25:31;;;;;;;5.43;4.43;;;;;;;;;;5074453;28;20036;-65
2021/03/20 11:28:17;;;;;;;4.90;4.22;;;;;;;;;;5071825;28;20056;-64
2021/03/20 11:31:02;;;;;;;6.90;4.22;;;;;;;;;;5072930;28;20036;-65
2021/03/20 11:33:48;;;;;;;7.35;4.28;;;;;;;;;;5073333;28;20049;-65
2021/03/20 11:36:33;;;;;;;10.52;5.13;;;;;;;;;;5072156;28;20075;-65
2021/03/20 11:39:19;;;;;;;5.45;4.43;;;;;;;;;;5072777;28;20048;-65
2021/03/20 11:42:08;;;;;;;7.22;4.88;;;;;;;;;;5072869;28;20040;-64
2021/03/20 11:44:53;;;;;;;6.65;5.10;;;;;;;;;;5072441;28;20045;-65
2021/03/20 11:47:38;;;;;;;5.93;4.90;;;;;;;;;;5070253;28;20044;-65
2021/03/20 11:50:31;;;;;;;7.35;4.90;;;;;;;;;;5066213;28;20060;-64
2021/03/20 11:53:27;;;;;;;5.20;4.68;;;;;;;;;;5058039;28;20072;-63
2021/03/20 11:56:15;;;;;;;8.25;5.22;;;;;;;;;;5069783;28;20049;-63
2021/03/20 11:59:02;;;;;;;6.30;4.63;;;;;;;;;;5072897;28;20048;-63
2021/03/20 12:01:48;;;;;;;4.93;4.43;;;;;;;;;;5067613;28;20468;-64
2021/03/20 12:04:33;;;;;;;5.10;4.00;;;;;;;;;;5072385;28;20128;-63
2021/03/20 12:07:21;;;;;;;6.30;3.95;;;;;;;;;;5071182;28;20045;-64
2021/03/20 12:10:35;;;;;;;7.70;4.90;;;;;;;;;;5072644;28;20074;-63
2021/03/20 12:13:39;;;;;;;6.80;4.53;;;;;;;;;;5066835;28;20060;-63
2021/03/20 12:16:24;;;;;;;7.20;4.47;;;;;;;;;;5072199;28;20074;-63
2021/03/20 12:19:11;;;;;;;7.72;5.57;;;;;;;;;;5071844;28;20045;-63
2021/03/20 12:22:03;;;;;;;6.00;3.95;;;;;;;;;;5071415;28;20041;-64
2021/03/20 12:24:51;;;;;;;7.85;4.65;;;;;;;;;;5072739;28;20494;-63
2021/03/20 12:27:37;;;;;;;5.22;4.25;;;;;;;;;;5069734;28;20036;-64
2021/03/20 12:30:23;;;;;;;4.93;3.60;;;;;;;;;;5072277;28;20405;-63
2021/03/20 12:33:11;;;;;;;4.68;3.92;;;;;;;;;;5072238;28;20037;-63
2021/03/20 12:35:56;;;;;;;4.57;3.88;;;;;;;;;;5071922;28;20479;-63
2021/03/20 12:38:41;;;;;;;9.65;4.03;;;;;;;;;;5070411;28;20044;-63
2021/03/20 12:41:28;;;;;;;5.78;4.70;;;;;;;;;;5071143;28;20040;-64
2021/03/20 12:44:23;;;;;;;6.93;4.55;;;;;;;;;;5071920;28;20041;-64
2021/03/20 12:47:08;;;;;;;4.32;3.90;;;;;;;;;;5072126;28;20044;-63
2021/03/20 12:49:54;;;;;;;8.80;4.35;;;;;;;;;;5070382;28;20514;-63
2021/03/20 12:52:39;;;;;;;7.00;4.63;;;;;;;;;;5071853;28;20044;-64
2021/03/20 12:55:24;;;;;;;7.25;4.50;;;;;;;;;;5070885;28;20052;-64
2021/03/20 12:58:09;;;;;;;7.47;4.38;;;;;;;;;;5070875;28;20037;-64
2021/03/20 13:00:55;;;;;;;7.22;5.25;;;;;;;;;;5051799;28;20041;-64
2021/03/20 13:03:40;;;;;;;6.75;5.55;;;;;;;;;;5051994;28;20049;-63
2021/03/20 13:06:27;;;;;;;6.15;4.55;;;;;;;;;;5051369;28;20045;-63
2021/03/20 13:09:12;;;;;;;6.63;5.50;;;;;;;;;;5056396;28;20048;-64
2021/03/20 13:11:57;;;;;;;6.47;5.03;;;;;;;;;;5071611;28;20048;-64
2021/03/20 13:14:43;;;;;;;8.27;4.93;;;;;;;;;;5071774;28;20419;-63
2021/03/20 13:17:29;;;;;;;8.25;4.68;;;;;;;;;;5071827;28;20058;-64
2021/03/20 13:20:14;;;;;;;15.35;4.60;;;;;;;;;;5070265;28;20079;-63
2021/03/20 13:23:00;;;;;;;7.40;4.55;;;;;;;;;;5072219;28;20041;-65
2021/03/20 13:25:45;;;;;;;7.43;4.45;;;;;;;;;;5076831;28;20510;-64
2021/03/20 13:28:31;;;;;;;10.35;4.65;;;;;;;;;;5076489;28;20040;-65
2021/03/20 13:31:16;;;;;;;8.60;4.38;;;;;;;;;;5073739;28;20044;-65
2021/03/20 13:34:01;;;;;;;9.80;4.88;;;;;;;;;;5076788;28;20044;-64
2021/03/20 13:36:47;;;;;;;20.20;6.35;;;;;;;;;;5076817;28;20120;-64
2021/03/20 13:39:32;;;;;;;6.85;4.53;;;;;;;;;;5075729;28;20048;-64
2021/03/20 13:42:19;;;;;;;8.85;4.13;;;;;;;;;;5076841;28;20040;-65
2021/03/20 13:45:05;;;;;;;6.00;3.88;;;;;;;;;;5076584;28;20048;-63
2021/03/20 13:47:51;;;;;;;5.90;3.45;;;;;;;;;;5076323;28;20041;-64
2021/03/20 13:50:36;;;;;;;7.32;3.15;;;;;;;;;;5075037;28;20037;-63
2021/03/20 13:53:22;;;;;;;4.22;2.80;;;;;;;;;;5076509;28;20116;-64
2021/03/20 13:56:08;;;;;;;8.40;3.28;;;;;;;;;;5075934;28;20120;-64
2021/03/20 13:58:54;;;;;;;8.75;3.30;;;;;;;;;;5076272;28;20048;-65
2021/03/20 14:01:39;;;;;;;8.88;2.78;;;;;;;;;;5074781;28;20538;-65
2021/03/20 14:04:25;;;;;;;8.63;3.88;;;;;;;;;;5076226;28;20402;-64
2021/03/20 14:07:10;;;;;;;3.25;2.80;;;;;;;;;;5076309;28;20045;-64
2021/03/20 14:09:57;;;;;;;5.05;3.38;;;;;;;;;;5075238;28;20135;-64
2021/03/20 14:12:42;;;;;;;5.03;3.75;;;;;;;;;;5072339;28;20141;-64
2021/03/20 14:15:27;;;;;;;4.53;3.28;;;;;;;;;;5074543;28;20116;-64
2021/03/20 14:18:13;;;;;;;3.38;2.47;;;;;;;;;;5074779;28;20044;-64
2021/03/20 14:20:59;;;;;;;4.80;3.08;;;;;;;;;;5074784;28;20053;-64
2021/03/20 14:23:46;;;;;;;4.40;2.78;;;;;;;;;;5054665;28;20037;-64
2021/03/20 14:26:31;;;;;;;4.18;3.08;;;;;;;;;;5054611;28;20076;-64
2021/03/20 14:29:16;;;;;;;6.03;4.40;;;;;;;;;;5054662;28;20486;-64
2021/03/20 14:32:02;;;;;;;3.80;3.45;;;;;;;;;;5058592;28;20048;-64
2021/03/20 14:34:47;;;;;;;11.75;4.63;;;;;;;;;;5073329;28;20057;-64
2021/03/20 14:37:32;;;;;;;4.30;2.80;;;;;;;;;;5074575;28;20049;-64
2021/03/20 14:40:18;;;;;;;3.15;2.85;;;;;;;;;;5074365;28;20119;-64
2021/03/20 14:43:04;;;;;;;3.75;3.28;;;;;;;;;;5072573;28;20045;-63
2021/03/20 14:45:49;;;;;;;3.97;3.58;;;;;;;;;;5074175;28;20048;-64
2021/03/20 14:48:34;;;;;;;4.45;4.00;;;;;;;;;;5074338;28;20052;-63
2021/03/20 14:51:20;;;;;;;5.28;4.65;;;;;;;;;;5074101;28;20036;-63
2021/03/20 14:54:05;;;;;;;4.65;3.75;;;;;;;;;;5072424;28;20048;-63
2021/03/20 14:56:50;;;;;;;6.85;4.88;;;;;;;;;;5074135;28;20040;-63
2021/03/20 14:59:36;;;;;;;5.82;4.47;;;;;;;;;;5073916;28;20045;-63
2021/03/20 15:02:21;;;;;;;6.63;4.57;;;;;;;;;;5073875;28;20399;-63
2021/03/20 15:05:07;;;;;;;6.10;3.78;;;;;;;;;;5073705;28;20041;-64
2021/03/20 15:07:52;;;;;;;6.95;4.55;;;;;;;;;;5073812;28;20502;-63
2021/03/20 15:10:39;;;;;;;5.20;4.63;;;;;;;;;;5073692;28;20044;-64
2021/03/20 15:13:24;;;;;;;5.80;4.38;;;;;;;;;;5070776;28;20052;-63
2021/03/20 15:16:09;;;;;;;6.35;4.88;;;;;;;;;;5073469;28;20041;-63
2021/03/20 15:18:54;;;;;;;6.25;5.00;;;;;;;;;;5073742;28;20075;-64
2021/03/20 15:21:40;;;;;;;5.40;4.65;;;;;;;;;;5073687;28;20041;-63
2021/03/20 15:24:26;;;;;;;7.22;4.85;;;;;;;;;;5071529;28;20491;-63
2021/03/20 15:27:12;;;;;;;5.32;3.80;;;;;;;;;;5073639;28;20049;-63
2021/03/20 15:29:57;;;;;;;6.13;4.20;;;;;;;;;;5073425;28;20049;-63
2021/03/20 15:32:42;;;;;;;4.28;3.47;;;;;;;;;;5073365;28;20095;-63
2021/03/20 15:35:28;;;;;;;4.65;4.15;;;;;;;;;;5071453;28;20045;-63
2021/03/20 15:38:13;;;;;;;6.90;4.80;;;;;;;;;;5073327;28;20052;-63
2021/03/20 15:41:00;;;;;;;5.38;3.65;;;;;;;;;;5073071;28;20434;-64
2021/03/20 15:43:45;;;;;;;8.75;3.80;;;;;;;;;;5073362;28;20079;-63
2021/03/20 15:46:30;;;;;;;4.70;3.50;;;;;;;;;;5067538;28;20044;-63
2021/03/20 15:49:16;;;;;;;4.25;3.83;;;;;;;;;;5073126;28;20403;-63
2021/03/20 15:52:01;;;;;;;4.18;3.78;;;;;;;;;;5072897;28;20127;-63
2021/03/20 15:54:47;;;;;;;6.57;3.80;;;;;;;;;;5071141;28;20068;-64
2021/03/20 15:57:32;;;;;;;6.90;3.13;;;;;;;;;;5073002;28;20049;-63
2021/03/20 16:00:18;;;;;;;6.25;4.32;;;;;;;;;;5066786;28;20120;-63
2021/03/20 16:03:03;;;;;;;4.95;3.45;;;;;;;;;;5071794;28;20115;-64
2021/03/20 16:05:52;;;;;;;6.35;3.35;;;;;;;;;;5070818;28;20048;-63
2021/03/20 16:08:38;;;;;;;6.63;3.85;;;;;;;;;;5072640;28;20139;-63
2021/03/20 16:11:24;;;;;;;4.15;3.47;;;;;;;;;;5083099;22;20042;-66
2021/03/20 16:14:09;;;;;;;6.05;3.80;;;;;;;;;;5052412;28;20040;-65
2021/03/20 16:16:55;;;;;;;5.80;4.57;;;;;;;;;;5067087;28;20036;-66
2021/03/20 16:19:40;;;;;;;4.00;3.60;;;;;;;;;;5072347;28;20044;-65
2021/03/20 16:22:25;;;;;;;3.97;3.25;;;;;;;;;;5072359;28;20045;-66
2021/03/20 16:25:11;;;;;;;8.02;4.07;;;;;;;;;;5072065;28;20056;-65
2021/03/20 16:27:57;;;;;;;7.20;3.80;;;;;;;;;;5032634;28;20049;-65
2021/03/20 16:30:43;;;;;;;4.88;3.70;;;;;;;;;;5032455;28;20057;-65
2021/03/20 16:33:29;;;;;;;4.95;3.33;;;;;;;;;;5032241;28;20041;-65
2021/03/20 16:36:15;;;;;;;5.43;3.33;;;;;;;;;;5041355;28;20131;-64
2021/03/20 16:39:01;;;;;;;5.95;3.50;;;;;;;;;;5056855;28;20040;-65
2021/03/20 16:41:46;;;;;;;6.88;3.40;;;;;;;;;;5071998;28;20123;-64
2021/03/20 16:44:31;;;;;;;5.35;3.35;;;;;;;;;;5071801;28;20072;-65